Time;durP1;ratioP1;P1;durP2;ratioP2;P2;SDS_P1;SDS_P2;PMS_P1;PMS_P2;Temp;Humidity;BMP_temperature;BMP_pressure;BME280_temperature;BME280_humidity;BME280_pressure;Samples;Min_cycle;Max_cycle;Signal;HPM_P1;HPM_P2
2022/12/19 00:01:06;;;;;;;5.35;2.97;;;2.60;41.50;;;;;;4987201;28;20198;-72
2022/12/19 00:03:32;;;;;;;5.35;2.67;;;2.70;41.10;;;;;;4971992;28;20159;-71
2022/12/19 00:06:02;;;;;;;4.40;2.70;;;2.50;41.40;;;;;;4938114;28;20179;-72
2022/12/19 00:08:28;;;;;;;2.55;1.38;;;2.70;41.80;;;;;;4970578;28;20238;-72
2022/12/19 00:10:58;;;;;;;2.30;1.10;;;2.90;41.00;;;;;;4958612;28;20199;-72
2022/12/19 00:13:25;;;;;;;3.63;2.10;;;2.90;41.00;;;;;;4972918;28;20432;-71
2022/12/19 00:15:51;;;;;;;5.60;1.55;;;1.90;43.70;;;;;;4983538;28;20196;-71
2022/12/19 00:18:16;;;;;;;2.50;1.30;;;2.00;44.00;;;;;;4967839;28;20808;-72
2022/12/19 00:20:42;;;;;;;6.90;1.80;;;1.70;45.20;;;;;;4981703;28;20406;-71
2022/12/19 00:23:07;;;;;;;2.33;1.20;;;1.80;45.70;;;;;;4991349;28;20221;-71
2022/12/19 00:25:33;;;;;;;2.60;1.40;;;1.80;46.10;;;;;;4981127;28;20730;-71
2022/12/19 00:27:58;;;;;;;2.60;1.50;;;2.30;44.70;;;;;;4988210;28;20243;-71
2022/12/19 00:30:24;;;;;;;2.30;1.30;;;2.70;43.20;;;;;;4982295;28;20186;-72
2022/12/19 00:32:50;;;;;;;4.97;2.13;;;2.80;43.00;;;;;;4962836;28;20749;-71
2022/12/19 00:35:15;;;;;;;2.57;1.43;;;3.00;42.20;;;;;;4990554;28;20182;-71
2022/12/19 00:37:41;;;;;;;2.97;1.90;;;3.20;41.40;;;;;;4957463;28;20585;-72
2022/12/19 00:40:07;;;;;;;2.50;1.43;;;3.30;41.30;;;;;;4965802;28;20604;-72
2022/12/19 00:42:33;;;;;;;4.47;1.75;;;3.40;40.80;;;;;;4980963;28;20202;-71
2022/12/19 00:44:58;;;;;;;2.50;1.30;;;3.40;41.00;;;;;;4987192;28;20616;-72
2022/12/19 00:47:27;;;;;;;6.27;2.50;;;3.30;41.00;;;;;;4976408;28;20191;-71
2022/12/19 00:49:53;;;;;;;3.15;1.63;;;3.10;41.40;;;;;;4952443;29;20179;-72
2022/12/19 00:52:18;;;;;;;2.93;1.83;;;3.20;41.50;;;;;;4961176;28;20210;-72
2022/12/19 00:54:44;;;;;;;3.13;1.50;;;3.20;41.30;;;;;;4965374;28;20182;-71
2022/12/19 00:57:09;;;;;;;3.07;2.30;;;2.90;42.40;;;;;;4986033;28;20189;-71
2022/12/19 00:59:35;;;;;;;2.40;1.30;;;2.90;41.90;;;;;;4975071;28;20696;-71
2022/12/19 01:02:00;;;;;;;2.80;1.40;;;2.80;42.90;;;;;;4981908;28;20283;-72
2022/12/19 01:04:26;;;;;;;3.90;2.00;;;3.00;42.80;;;;;;4978713;28;20190;-71
2022/12/19 01:06:52;;;;;;;2.60;1.40;;;3.20;42.10;;;;;;4986801;28;20198;-71
2022/12/19 01:09:17;;;;;;;2.33;1.20;;;3.40;40.90;;;;;;4964888;28;20194;-72
2022/12/19 01:14:27;;;;;;;3.70;2.47;;;3.00;41.90;;;;;;4970705;28;20856;-71
2022/12/19 01:16:53;;;;;;;2.50;1.40;;;3.20;41.50;;;;;;4975914;28;20195;-72
2022/12/19 01:19:19;;;;;;;2.40;1.10;;;3.30;41.50;;;;;;4972135;28;20636;-71
2022/12/19 01:21:44;;;;;;;2.53;1.52;;;3.10;41.70;;;;;;4971935;28;20190;-72
2022/12/19 01:24:10;;;;;;;4.67;2.37;;;3.30;41.80;;;;;;4970470;28;20258;-72
2022/12/19 01:26:36;;;;;;;3.47;2.17;;;3.30;41.50;;;;;;4977963;28;20407;-72
2022/12/19 01:29:03;;;;;;;2.30;1.20;;;3.50;42.30;;;;;;4972073;28;20438;-71
2022/12/19 01:31:28;;;;;;;2.40;1.30;;;3.50;41.30;;;;;;4958523;28;20561;-71
2022/12/19 01:33:54;;;;;;;2.97;1.83;;;3.60;41.30;;;;;;4959445;28;20233;-72
2022/12/19 01:36:20;;;;;;;2.70;1.50;;;3.70;41.20;;;;;;4979127;28;20185;-71
2022/12/19 01:38:45;;;;;;;3.03;1.87;;;3.50;41.70;;;;;;4954737;28;20234;-71
2022/12/19 01:41:11;;;;;;;2.50;1.40;;;3.50;42.00;;;;;;4973671;28;20599;-71
2022/12/19 01:43:55;;;;;;;3.60;2.27;;;3.60;41.80;;;;;;4985432;28;20244;-72
2022/12/19 01:46:28;;;;;;;2.72;1.50;;;3.70;41.50;;;;;;4983953;28;20286;-70
2022/12/19 01:48:55;;;;;;;2.95;1.65;;;3.70;41.90;;;;;;4965790;28;20657;-71
2022/12/19 01:51:24;;;;;;;2.28;1.20;;;3.90;41.20;;;;;;4979855;28;20571;-72
2022/12/19 01:53:51;;;;;;;2.40;1.30;;;4.00;41.00;;;;;;4982286;28;20197;-71
2022/12/19 01:56:28;;;;;;;2.40;1.27;;;4.00;41.20;;;;;;4976735;28;20221;-71
2022/12/19 01:58:56;;;;;;;2.20;1.20;;;4.00;41.10;;;;;;4983176;28;20213;-71
2022/12/19 02:01:23;;;;;;;3.20;1.45;;;3.90;41.20;;;;;;4993099;28;20221;-71
2022/12/19 02:03:50;;;;;;;2.30;1.20;;;3.50;42.40;;;;;;4960418;28;20184;-71
2022/12/19 02:06:16;;;;;;;2.97;1.92;;;3.20;43.70;;;;;;4961269;28;20175;-71
2022/12/19 02:08:46;;;;;;;2.58;1.35;;;2.90;44.90;;;;;;4963703;28;20245;-71
2022/12/19 02:11:11;;;;;;;4.68;2.05;;;2.80;45.50;;;;;;4961441;28;20537;-70
2022/12/19 02:13:37;;;;;;;3.50;2.07;;;2.70;45.90;;;;;;4964053;28;20194;-71
2022/12/19 02:16:27;;;;;;;5.13;2.57;;;3.00;45.10;;;;;;4958457;28;20264;-71
2022/12/19 02:19:05;;;;;;;2.80;1.63;;;3.30;43.80;;;;;;4970334;28;20461;-71
2022/12/19 02:22:01;;;;;;;7.65;2.63;;;2.50;45.80;;;;;;4959156;28;20205;-71
2022/12/19 02:25:10;;;;;;;2.50;1.40;;;2.00;47.70;;;;;;4973988;28;20239;-71
2022/12/19 02:27:51;;;;;;;2.40;1.40;;;1.90;48.60;;;;;;4914470;29;20596;-71
2022/12/19 02:30:46;;;;;;;2.17;1.05;;;2.20;47.50;;;;;;4913053;29;20277;-71
2022/12/19 02:33:50;;;;;;;4.28;2.10;;;2.50;46.20;;;;;;4913697;29;20275;-71
2022/12/19 02:36:35;;;;;;;2.30;1.20;;;2.60;46.20;;;;;;4903975;29;20204;-71
2022/12/19 02:39:17;;;;;;;5.15;2.75;;;2.80;45.60;;;;;;4913796;29;20212;-70
2022/12/19 02:41:54;;;;;;;2.70;1.40;;;2.70;45.50;;;;;;4912244;29;20212;-71
2022/12/19 02:44:40;;;;;;;3.72;2.63;;;2.40;46.90;;;;;;4911914;29;20188;-71
2022/12/19 02:47:07;;;;;;;3.20;2.20;;;2.10;47.40;;;;;;4912705;29;20704;-71
2022/12/19 02:49:35;;;;;;;3.83;2.58;;;2.10;48.30;;;;;;4913309;29;20207;-71
2022/12/19 02:52:31;;;;;;;5.88;1.95;;;2.30;48.20;;;;;;4911816;29;20276;-71
2022/12/19 02:55:06;;;;;;;5.65;3.17;;;2.40;47.90;;;;;;4912427;29;20195;-71
2022/12/19 02:57:37;;;;;;;4.07;2.00;;;2.90;45.60;;;;;;4911112;29;20255;-71
2022/12/19 03:00:11;;;;;;;4.05;2.40;;;3.20;44.60;;;;;;4912611;29;20212;-72
2022/12/19 03:03:34;;;;;;;5.43;3.10;;;3.30;43.70;;;;;;4912899;29;20219;-71
2022/12/19 03:06:07;;;;;;;2.30;1.27;;;3.70;43.10;;;;;;4897934;29;20189;-72
2022/12/19 03:08:59;;;;;;;2.70;1.50;;;3.80;42.40;;;;;;4917569;29;20200;-71
2022/12/19 03:11:29;;;;;;;2.78;1.90;;;3.70;42.40;;;;;;4927181;29;20622;-71
2022/12/19 03:14:02;;;;;;;3.75;2.38;;;3.20;44.20;;;;;;4914601;29;20676;-71
2022/12/19 03:16:28;;;;;;;4.65;2.70;;;2.50;46.00;;;;;;4915304;29;20188;-71
2022/12/19 03:18:55;;;;;;;2.40;1.40;;;1.70;50.70;;;;;;4920558;29;20219;-71
2022/12/19 03:21:24;;;;;;;2.72;1.85;;;1.90;51.50;;;;;;4919563;29;20475;-71
2022/12/19 03:23:52;;;;;;;3.30;1.85;;;2.60;48.60;;;;;;4921250;29;20594;-71
2022/12/19 03:26:21;;;;;;;2.60;1.38;;;3.00;46.90;;;;;;4923147;29;20193;-71
2022/12/19 03:28:52;;;;;;;13.70;2.15;;;3.10;45.50;;;;;;4922356;29;20288;-71
2022/12/19 03:31:20;;;;;;;13.25;3.13;;;3.10;45.60;;;;;;4918826;29;20224;-70
2022/12/19 03:33:49;;;;;;;4.05;3.15;;;2.90;46.50;;;;;;4923584;29;20231;-70
2022/12/19 03:36:19;;;;;;;2.90;1.95;;;2.80;47.20;;;;;;4922740;29;20278;-71
2022/12/19 03:38:47;;;;;;;2.33;1.20;;;3.20;46.30;;;;;;4978525;28;20206;-71
2022/12/19 03:41:14;;;;;;;2.80;1.50;;;3.50;44.90;;;;;;4982999;28;20228;-71
2022/12/19 03:43:43;;;;;;;3.85;2.55;;;3.70;44.10;;;;;;4969106;28;20179;-71
2022/12/19 03:46:26;;;;;;;2.95;1.50;;;3.90;43.70;;;;;;4953384;29;20171;-72
2022/12/19 03:48:53;;;;;;;2.83;1.70;;;4.10;43.10;;;;;;4954218;29;20174;-72
2022/12/19 03:51:25;;;;;;;6.68;3.15;;;4.10;43.20;;;;;;4963971;28;20686;-72
2022/12/19 03:53:57;;;;;;;2.67;1.55;;;4.40;42.00;;;;;;4974522;28;20191;-71
2022/12/19 03:56:32;;;;;;;2.85;1.95;;;4.40;41.30;;;;;;4969638;28;20182;-71
2022/12/19 03:59:14;;;;;;;4.10;1.98;;;4.20;42.80;;;;;;4979656;28;20582;-71
2022/12/19 04:01:41;;;;;;;2.30;1.33;;;4.40;42.30;;;;;;4974049;28;20214;-71
2022/12/19 04:04:08;;;;;;;5.00;2.60;;;4.50;42.40;;;;;;4979067;28;20217;-71
2022/12/19 04:06:34;;;;;;;2.40;1.40;;;4.80;41.50;;;;;;4981033;28;20229;-71
2022/12/19 04:09:00;;;;;;;5.90;2.80;;;4.60;43.00;;;;;;4988933;28;20189;-71
2022/12/19 04:11:37;;;;;;;2.75;1.65;;;4.90;41.80;;;;;;4973218;28;20576;-71
2022/12/19 04:14:09;;;;;;;4.72;2.22;;;4.90;42.00;;;;;;4972621;28;20182;-70
2022/12/19 04:16:38;;;;;;;2.83;1.52;;;4.90;41.70;;;;;;4975130;28;20186;-71
2022/12/19 04:19:36;;;;;;;3.45;2.08;;;4.60;43.00;;;;;;4983464;28;20215;-71
2022/12/19 04:22:10;;;;;;;3.75;1.83;;;4.80;43.40;;;;;;4984052;28;20212;-71
2022/12/19 04:24:38;;;;;;;2.70;1.40;;;4.90;43.50;;;;;;4967128;28;20300;-71
2022/12/19 04:27:07;;;;;;;2.30;1.20;;;4.70;44.30;;;;;;4974817;28;20174;-71
2022/12/19 04:29:34;;;;;;;5.75;1.40;;;4.80;44.50;;;;;;4975024;28;20293;-71
2022/12/19 04:32:02;;;;;;;2.63;1.80;;;4.70;44.40;;;;;;4973874;28;20214;-71
2022/12/19 04:34:28;;;;;;;2.90;1.90;;;5.00;43.60;;;;;;4973405;28;20193;-71
2022/12/19 04:36:53;;;;;;;2.63;1.93;;;5.00;43.30;;;;;;4977157;28;20186;-70
2022/12/19 04:39:19;;;;;;;2.30;1.30;;;4.90;43.10;;;;;;4978047;28;20276;-71
2022/12/19 04:41:45;;;;;;;2.40;1.30;;;4.40;44.70;;;;;;4979591;28;20249;-70
2022/12/19 04:44:11;;;;;;;5.47;2.37;;;4.60;44.90;;;;;;4980727;28;20178;-71
2022/12/19 04:46:36;;;;;;;2.20;1.20;;;5.00;44.50;;;;;;4989156;28;20576;-71
2022/12/19 04:49:02;;;;;;;5.63;3.30;;;5.00;43.70;;;;;;4957522;28;20229;-71
2022/12/19 04:51:27;;;;;;;2.30;1.57;;;5.10;44.10;;;;;;4983088;28;20216;-71
2022/12/19 04:53:53;;;;;;;2.83;1.77;;;4.90;44.70;;;;;;4991761;28;20178;-71
2022/12/19 04:56:18;;;;;;;2.73;1.80;;;4.40;45.50;;;;;;4991369;28;20307;-71
2022/12/19 04:58:44;;;;;;;2.97;1.97;;;3.60;50.00;;;;;;4953940;28;20261;-71
2022/12/19 05:01:12;;;;;;;2.80;1.63;;;3.90;50.00;;;;;;4975532;28;20245;-71
2022/12/19 05:03:38;;;;;;;8.52;2.85;;;4.30;47.80;;;;;;4985205;28;20162;-71
2022/12/19 05:06:09;;;;;;;5.03;2.30;;;4.80;46.40;;;;;;4983091;28;20194;-72
2022/12/19 05:08:37;;;;;;;3.15;1.83;;;5.00;45.20;;;;;;4978086;28;20183;-70
2022/12/19 05:11:05;;;;;;;2.50;1.50;;;5.40;43.60;;;;;;4978384;28;20617;-71
2022/12/19 05:13:31;;;;;;;2.83;1.60;;;5.20;43.90;;;;;;4978415;28;20182;-70
2022/12/19 05:15:58;;;;;;;2.20;1.20;;;5.20;44.20;;;;;;4982671;28;20681;-70
2022/12/19 05:18:24;;;;;;;2.42;1.38;;;5.30;44.00;;;;;;4994055;28;20181;-71
2022/12/19 05:20:49;;;;;;;4.18;2.28;;;5.20;44.10;;;;;;4964336;28;20185;-71
2022/12/19 05:23:15;;;;;;;2.73;1.67;;;5.10;44.60;;;;;;4982519;28;20676;-71
2022/12/19 05:25:41;;;;;;;26.77;2.80;;;4.70;45.00;;;;;;4969750;28;20178;-71
2022/12/19 05:28:06;;;;;;;2.83;1.90;;;4.40;47.10;;;;;;4985117;28;20221;-71
2022/12/19 05:30:32;;;;;;;4.10;2.60;;;4.10;48.20;;;;;;4985076;28;20689;-71
2022/12/19 05:32:57;;;;;;;3.90;1.97;;;4.40;47.80;;;;;;4993924;28;20189;-71
2022/12/19 05:35:23;;;;;;;2.30;1.40;;;4.70;46.00;;;;;;4994903;28;20189;-71
2022/12/19 05:37:48;;;;;;;2.70;1.40;;;4.80;46.00;;;;;;4985648;28;20684;-71
2022/12/19 05:40:14;;;;;;;3.10;2.00;;;5.10;45.30;;;;;;4981673;28;20215;-72
2022/12/19 05:42:39;;;;;;;2.20;1.30;;;5.40;44.80;;;;;;4986299;28;20229;-72
2022/12/19 05:45:06;;;;;;;2.30;1.30;;;5.30;44.50;;;;;;4978728;28;20178;-71
2022/12/19 05:47:31;;;;;;;2.20;1.40;;;4.40;47.40;;;;;;4976271;28;20182;-71
2022/12/19 05:49:57;;;;;;;2.40;1.40;;;4.00;50.50;;;;;;4988509;28;20201;-71
2022/12/19 05:52:23;;;;;;;2.27;1.27;;;3.60;51.40;;;;;;4967095;28;20216;-71
2022/12/19 05:54:49;;;;;;;3.10;1.60;;;3.40;53.00;;;;;;4987923;28;20209;-72
2022/12/19 05:57:15;;;;;;;2.85;1.83;;;3.10;55.70;;;;;;4975381;28;20226;-71
2022/12/19 05:59:41;;;;;;;2.00;1.10;;;3.00;55.80;;;;;;4964659;28;20584;-71
2022/12/19 06:02:07;;;;;;;4.97;2.23;;;3.10;56.00;;;;;;4963063;28;20269;-71
2022/12/19 06:04:36;;;;;;;2.53;1.63;;;2.90;57.90;;;;;;4983765;28;20569;-71
2022/12/19 06:07:02;;;;;;;6.53;2.03;;;3.50;55.00;;;;;;4944211;29;20763;-71
2022/12/19 06:09:28;;;;;;;2.17;1.42;;;3.80;53.00;;;;;;4963586;28;20203;-71
2022/12/19 06:11:54;;;;;;;2.20;1.37;;;4.40;50.70;;;;;;4981605;28;20206;-71
2022/12/19 06:14:19;;;;;;;2.87;1.73;;;5.00;47.90;;;;;;4968890;28;20661;-70
2022/12/19 06:16:45;;;;;;;3.30;2.10;;;4.70;47.90;;;;;;4982778;28;20625;-73
2022/12/19 06:19:11;;;;;;;2.00;1.10;;;5.00;48.00;;;;;;4979684;28;20229;-72
2022/12/19 06:21:36;;;;;;;2.33;1.50;;;5.40;46.10;;;;;;4977318;28;20670;-72
2022/12/19 06:24:02;;;;;;;3.03;1.83;;;5.60;45.80;;;;;;4974892;28;20222;-71
2022/12/19 06:26:28;;;;;;;2.23;1.30;;;5.90;44.20;;;;;;4971727;28;20770;-71
2022/12/19 06:28:54;;;;;;;3.58;2.08;;;5.90;43.80;;;;;;4974047;28;20727;-73
2022/12/19 06:31:21;;;;;;;2.87;1.97;;;6.00;43.50;;;;;;4984213;28;20289;-71
2022/12/19 06:33:47;;;;;;;3.90;1.77;;;6.00;43.50;;;;;;4988060;28;20650;-72
2022/12/19 06:36:20;;;;;;;4.23;2.37;;;6.00;43.30;;;;;;4992042;28;20193;-72
2022/12/19 06:38:46;;;;;;;2.75;1.70;;;5.90;44.40;;;;;;4985663;28;20203;-72
2022/12/19 06:44:02;;;;;;;3.90;1.42;;;5.90;44.50;;;;;;4968636;28;20225;-68
2022/12/19 06:46:28;;;;;;;2.50;1.45;;;5.90;44.60;;;;;;4985584;28;20181;-75
2022/12/19 06:48:53;;;;;;;2.20;1.20;;;5.60;45.10;;;;;;4985555;28;20201;-76
2022/12/19 06:51:19;;;;;;;2.43;1.40;;;5.50;45.70;;;;;;4977644;28;20210;-76
2022/12/19 06:53:45;;;;;;;6.20;2.27;;;5.50;46.70;;;;;;4980284;28;20185;-76
2022/12/19 06:56:13;;;;;;;5.60;2.13;;;5.80;45.90;;;;;;4964821;28;20497;-74
2022/12/19 06:58:39;;;;;;;2.60;1.60;;;5.70;45.80;;;;;;4938119;29;20568;-74
2022/12/19 07:01:05;;;;;;;3.03;1.77;;;5.20;47.40;;;;;;4962681;28;20206;-75
2022/12/19 07:03:40;;;;;;;2.00;1.20;;;5.20;49.00;;;;;;4977984;28;20190;-72
2022/12/19 07:06:07;;;;;;;2.45;1.50;;;5.70;47.00;;;;;;4980775;28;20423;-75
2022/12/19 07:08:32;;;;;;;2.65;1.63;;;5.90;46.00;;;;;;4981311;28;20221;-71
2022/12/19 07:10:58;;;;;;;2.63;1.97;;;5.60;45.80;;;;;;4965591;28;20318;-72
2022/12/19 07:13:24;;;;;;;3.33;2.00;;;5.40;47.00;;;;;;4977920;28;20262;-69
2022/12/19 07:15:51;;;;;;;2.87;1.87;;;5.60;47.40;;;;;;4985279;28;20259;-70
2022/12/19 07:18:17;;;;;;;2.20;1.33;;;5.70;45.80;;;;;;4966003;28;20186;-70
2022/12/19 07:20:43;;;;;;;2.33;1.40;;;5.40;46.00;;;;;;4969824;28;20563;-73
2022/12/19 07:23:12;;;;;;;3.90;2.28;;;4.40;51.60;;;;;;4977642;28;20191;-71
2022/12/19 07:25:39;;;;;;;3.35;1.92;;;4.10;54.00;;;;;;4985214;28;20201;-74
2022/12/19 07:28:06;;;;;;;2.10;1.20;;;3.90;54.90;;;;;;4977605;28;20646;-73
2022/12/19 07:30:32;;;;;;;2.40;1.50;;;4.60;52.70;;;;;;4968847;28;20190;-71
2022/12/19 07:32:57;;;;;;;2.83;1.43;;;5.30;48.90;;;;;;4983654;28;20205;-70
2022/12/19 07:35:23;;;;;;;2.00;1.20;;;5.70;48.20;;;;;;4987615;28;20190;-70
2022/12/19 07:37:50;;;;;;;4.32;2.20;;;6.00;46.10;;;;;;4962992;28;20244;-70
2022/12/19 07:40:16;;;;;;;2.22;1.45;;;6.20;45.00;;;;;;4973495;28;20210;-71
2022/12/19 07:42:42;;;;;;;2.30;1.60;;;6.20;44.70;;;;;;4964716;28;20194;-70
2022/12/19 07:45:08;;;;;;;3.80;2.23;;;6.30;44.60;;;;;;4940341;28;20568;-70
2022/12/19 07:47:33;;;;;;;2.70;1.60;;;6.20;44.90;;;;;;4973763;28;20534;-71
2022/12/19 07:50:00;;;;;;;2.87;2.00;;;6.20;45.00;;;;;;4972850;28;20434;-71
2022/12/19 07:52:26;;;;;;;1.90;1.10;;;6.20;44.90;;;;;;4972333;28;20197;-70
2022/12/19 07:54:52;;;;;;;3.47;1.40;;;6.30;44.90;;;;;;4979009;28;20193;-70
2022/12/19 07:57:18;;;;;;;2.08;1.35;;;6.30;45.00;;;;;;4979594;28;20625;-71
2022/12/19 07:59:43;;;;;;;2.20;1.50;;;6.30;45.20;;;;;;4981600;28;20218;-70
2022/12/19 08:02:09;;;;;;;2.43;1.50;;;6.40;44.80;;;;;;4978456;28;20283;-74
2022/12/19 08:04:35;;;;;;;2.30;1.50;;;6.40;44.70;;;;;;4979463;28;20210;-70
2022/12/19 08:07:01;;;;;;;3.30;1.93;;;6.30;45.20;;;;;;4985917;28;20192;-73
2022/12/19 08:09:27;;;;;;;1.95;1.17;;;6.00;46.10;;;;;;4976176;28;20707;-70
2022/12/19 08:11:53;;;;;;;2.00;1.25;;;6.00;46.10;;;;;;4959100;28;20211;-70
2022/12/19 08:14:19;;;;;;;2.95;1.83;;;6.20;45.70;;;;;;4964370;28;20698;-70
2022/12/19 08:16:45;;;;;;;2.78;1.88;;;6.40;45.30;;;;;;4992400;28;20182;-71
2022/12/19 08:19:11;;;;;;;2.63;1.67;;;6.50;45.00;;;;;;4985067;28;20560;-72
2022/12/19 08:21:36;;;;;;;3.30;2.10;;;6.80;43.70;;;;;;4979656;28;20194;-72
2022/12/19 08:24:02;;;;;;;1.97;1.20;;;6.90;43.60;;;;;;4976706;28;20252;-70
2022/12/19 08:26:28;;;;;;;1.90;1.10;;;6.60;43.90;;;;;;4980610;28;20392;-73
2022/12/19 08:28:56;;;;;;;2.87;1.63;;;6.20;45.30;;;;;;4978659;28;20436;-70
2022/12/19 08:31:23;;;;;;;2.17;1.50;;;5.90;46.00;;;;;;4982637;28;20269;-70
2022/12/19 08:33:50;;;;;;;3.17;1.52;;;6.20;46.10;;;;;;4977853;28;20194;-70
2022/12/19 08:36:19;;;;;;;4.90;2.03;;;6.70;43.60;;;;;;4982243;28;20244;-74
2022/12/19 08:38:46;;;;;;;2.78;2.17;;;6.90;42.70;;;;;;4977114;28;20293;-73
2022/12/19 08:41:13;;;;;;;3.67;2.33;;;7.10;42.60;;;;;;4971596;28;22129;-70
2022/12/19 08:43:39;;;;;;;2.17;1.40;;;7.20;42.00;;;;;;4975635;28;20195;-70
2022/12/19 08:46:05;;;;;;;4.23;2.43;;;7.10;41.90;;;;;;4988455;28;20228;-71
2022/12/19 08:48:32;;;;;;;2.85;1.58;;;7.30;41.80;;;;;;4963329;28;20178;-73
2022/12/19 08:51:00;;;;;;;1.90;1.20;;;7.50;41.00;;;;;;4987627;28;20681;-71
2022/12/19 08:53:28;;;;;;;2.35;1.65;;;7.20;41.80;;;;;;4991687;28;20174;-71
2022/12/19 08:56:00;;;;;;;1.90;1.10;;;7.60;41.00;;;;;;4991794;28;20540;-71
2022/12/19 08:58:27;;;;;;;2.85;2.10;;;7.50;41.00;;;;;;4991429;28;20252;-71
2022/12/19 09:00:53;;;;;;;3.40;2.15;;;7.50;40.70;;;;;;4991482;28;20178;-72
2022/12/19 09:03:19;;;;;;;2.23;1.40;;;7.80;40.20;;;;;;4991294;28;20307;-72
2022/12/19 09:05:45;;;;;;;3.05;1.58;;;8.00;40.60;;;;;;4991606;28;20583;-71
2022/12/19 09:08:11;;;;;;;2.47;1.67;;;7.90;40.40;;;;;;4986147;28;20190;-73
2022/12/19 09:10:37;;;;;;;2.20;1.40;;;8.30;39.00;;;;;;4955002;28;20856;-71
2022/12/19 09:13:04;;;;;;;6.65;2.97;;;8.60;38.20;;;;;;4971890;28;20221;-73
2022/12/19 09:15:30;;;;;;;2.35;1.70;;;8.40;38.70;;;;;;4972190;28;20182;-72
2022/12/19 09:17:55;;;;;;;1.80;1.10;;;8.10;39.60;;;;;;4972283;28;20179;-72
2022/12/19 09:20:21;;;;;;;2.10;1.40;;;7.80;40.40;;;;;;4971996;28;20206;-73
2022/12/19 09:22:47;;;;;;;4.45;1.55;;;7.60;41.80;;;;;;4971795;28;20229;-72
2022/12/19 09:25:13;;;;;;;2.50;2.13;;;7.90;41.00;;;;;;4972026;28;20210;-71
2022/12/19 09:27:39;;;;;;;1.70;1.10;;;8.30;39.90;;;;;;4972155;28;20621;-71
2022/12/19 09:30:05;;;;;;;1.70;1.08;;;8.20;39.70;;;;;;4972137;28;20171;-72
2022/12/19 09:32:31;;;;;;;1.70;1.10;;;8.20;39.80;;;;;;4971462;28;20202;-71
2022/12/19 09:34:56;;;;;;;2.37;1.60;;;8.30;40.10;;;;;;4971873;28;20187;-71
2022/12/19 09:37:22;;;;;;;2.03;1.40;;;7.90;41.70;;;;;;4972265;28;20278;-72
2022/12/19 09:39:47;;;;;;;1.90;1.27;;;8.20;41.20;;;;;;4971764;28;20238;-71
2022/12/19 09:42:38;;;;;;;2.07;1.27;;;8.20;41.10;;;;;;4971787;28;20202;-71
2022/12/19 09:45:25;;;;;;;2.03;1.35;;;8.70;39.80;;;;;;4971551;28;20410;-71
2022/12/19 09:47:56;;;;;;;2.17;1.50;;;8.60;40.00;;;;;;4972018;28;20163;-72
2022/12/19 09:51:05;;;;;;;3.72;2.50;;;8.50;39.80;;;;;;4954646;28;20265;-73
2022/12/19 09:53:37;;;;;;;9.15;2.30;;;8.40;40.30;;;;;;4931432;29;20731;-71
2022/12/19 09:56:09;;;;;;;2.35;1.98;;;8.20;40.70;;;;;;4930845;29;20188;-71
2022/12/19 09:58:41;;;;;;;2.85;1.60;;;8.30;40.70;;;;;;4931149;29;20218;-71
2022/12/19 10:01:18;;;;;;;2.47;1.73;;;7.90;41.30;;;;;;4932376;29;20196;-71
2022/12/19 10:03:53;;;;;;;3.45;2.15;;;7.50;42.90;;;;;;4934320;29;20164;-71
2022/12/19 10:06:21;;;;;;;3.08;2.08;;;7.20;44.80;;;;;;4934521;29;20530;-71
2022/12/19 10:08:47;;;;;;;2.00;1.40;;;7.40;43.60;;;;;;4934380;29;20823;-71
2022/12/19 10:11:15;;;;;;;2.28;1.70;;;6.80;46.50;;;;;;4933998;29;20215;-71
2022/12/19 10:13:43;;;;;;;1.95;1.33;;;6.30;48.40;;;;;;4934149;29;20258;-71
2022/12/19 10:16:27;;;;;;;2.33;1.67;;;6.70;46.70;;;;;;4934264;29;20239;-71
2022/12/19 10:19:07;;;;;;;2.00;1.48;;;7.10;45.20;;;;;;4934128;29;20216;-71
2022/12/19 10:21:38;;;;;;;1.70;1.10;;;6.80;46.80;;;;;;4934123;29;20208;-70
2022/12/19 10:24:28;;;;;;;2.45;1.58;;;6.90;46.30;;;;;;4918040;29;20176;-70
2022/12/19 10:27:03;;;;;;;4.18;2.00;;;6.30;47.10;;;;;;4944274;28;20229;-70
2022/12/19 10:29:57;;;;;;;3.75;2.22;;;5.90;50.00;;;;;;4974847;28;20193;-71
2022/12/19 10:32:39;;;;;;;3.97;1.77;;;6.30;49.10;;;;;;4974198;28;20198;-71
2022/12/19 10:35:17;;;;;;;2.40;1.80;;;6.90;46.90;;;;;;4974637;28;20185;-71
2022/12/19 10:38:07;;;;;;;2.28;1.58;;;7.50;44.20;;;;;;4974530;28;20672;-71
2022/12/19 10:40:43;;;;;;;2.78;1.75;;;7.90;43.40;;;;;;4974489;28;20191;-71
2022/12/19 10:43:27;;;;;;;3.05;1.92;;;8.20;43.00;;;;;;4974594;28;20603;-71
2022/12/19 10:45:58;;;;;;;4.50;2.88;;;8.50;41.30;;;;;;4974039;28;20626;-71
2022/12/19 10:48:24;;;;;;;1.80;1.20;;;8.70;40.60;;;;;;4973742;28;20593;-71
2022/12/19 10:50:50;;;;;;;2.00;1.40;;;8.90;40.40;;;;;;4974125;28;20241;-72
2022/12/19 10:53:25;;;;;;;2.78;1.90;;;9.10;40.30;;;;;;4974455;28;20646;-72
2022/12/19 10:55:52;;;;;;;3.05;1.80;;;9.40;39.50;;;;;;4956860;28;20183;-72
2022/12/19 10:58:24;;;;;;;2.65;1.77;;;9.50;38.50;;;;;;4974219;28;20261;-71
2022/12/19 11:00:53;;;;;;;2.10;1.52;;;9.50;37.90;;;;;;4974085;28;20270;-71
2022/12/19 11:03:19;;;;;;;1.83;1.30;;;9.40;38.50;;;;;;5010690;22;20174;-72
2022/12/19 11:05:55;;;;;;;2.73;1.50;;;9.50;38.60;;;;;;5005995;28;20198;-71
2022/12/19 11:08:35;;;;;;;2.65;1.75;;;9.30;38.90;;;;;;5012652;28;20410;-71
2022/12/19 11:11:03;;;;;;;3.00;1.48;;;9.60;38.60;;;;;;5012975;28;20705;-72
2022/12/19 11:13:47;;;;;;;3.00;2.25;;;9.80;38.80;;;;;;5012040;28;20726;-72
2022/12/19 11:16:21;;;;;;;2.10;1.60;;;9.80;37.80;;;;;;5013130;28;20180;-72
2022/12/19 11:18:48;;;;;;;1.70;1.10;;;10.10;37.20;;;;;;5012852;28;20211;-72
2022/12/19 11:21:22;;;;;;;2.85;1.63;;;10.00;37.30;;;;;;5012613;28;20184;-72
2022/12/19 11:23:52;;;;;;;2.33;1.55;;;10.00;37.30;;;;;;5012915;28;20256;-72
2022/12/19 11:26:46;;;;;;;2.42;1.60;;;10.20;37.10;;;;;;5012844;28;20345;-72
2022/12/19 11:29:35;;;;;;;3.22;2.08;;;10.40;36.80;;;;;;5011715;28;20190;-72
2022/12/19 11:32:01;;;;;;;2.72;1.88;;;9.70;38.90;;;;;;5009498;28;20199;-72
2022/12/19 11:34:31;;;;;;;2.00;1.45;;;9.50;39.50;;;;;;5012135;28;20211;-71
2022/12/19 11:37:32;;;;;;;2.50;1.40;;;10.00;37.80;;;;;;5012693;28;20180;-72
2022/12/19 11:40:09;;;;;;;2.63;1.75;;;10.50;36.20;;;;;;4990398;28;20219;-72
2022/12/19 11:42:45;;;;;;;2.55;1.83;;;10.30;37.50;;;;;;4990397;28;20251;-72
2022/12/19 11:45:58;;;;;;;2.30;1.45;;;10.60;36.90;;;;;;4973185;28;20242;-72
2022/12/19 11:48:55;;;;;;;2.15;1.60;;;9.90;38.40;;;;;;4925129;29;20268;-72
2022/12/19 11:51:47;;;;;;;1.95;1.30;;;10.10;37.30;;;;;;4965706;28;20213;-72
2022/12/19 11:54:36;;;;;;;3.53;2.22;;;10.50;36.70;;;;;;4966772;28;20214;-73
2022/12/19 11:57:02;;;;;;;2.10;1.45;;;11.00;35.30;;;;;;4969528;28;20190;-74
2022/12/19 11:59:34;;;;;;;3.33;1.93;;;11.10;35.60;;;;;;4968656;28;20214;-74
2022/12/19 12:02:22;;;;;;;2.60;1.63;;;11.30;35.00;;;;;;4969384;28;20449;-73
2022/12/19 12:05:06;;;;;;;2.45;1.73;;;11.10;33.60;;;;;;4983382;28;20225;-73
2022/12/19 12:07:35;;;;;;;2.20;1.50;;;11.00;34.90;;;;;;4968477;28;20973;-74
2022/12/19 12:10:19;;;;;;;2.30;1.63;;;10.90;35.10;;;;;;4966817;28;20513;-75
2022/12/19 12:12:57;;;;;;;3.70;1.87;;;10.70;35.60;;;;;;4965333;28;20440;-73
2022/12/19 12:16:10;;;;;;;2.10;1.57;;;10.00;37.60;;;;;;4972899;28;20499;-74
2022/12/19 12:18:44;;;;;;;1.80;1.20;;;9.50;40.50;;;;;;5003172;28;20574;-74
2022/12/19 12:21:24;;;;;;;2.10;1.40;;;8.90;41.30;;;;;;5009597;28;20212;-73
2022/12/19 12:24:14;;;;;;;20.98;2.55;;;8.40;42.80;;;;;;5007424;28;20563;-72
2022/12/19 12:27:00;;;;;;;2.88;1.60;;;8.90;42.70;;;;;;5006418;28;20170;-72
2022/12/19 12:29:37;;;;;;;2.63;1.70;;;8.90;42.00;;;;;;4995580;28;20180;-73
2022/12/19 12:32:06;;;;;;;2.20;1.40;;;9.10;42.10;;;;;;5011633;28;20368;-72
2022/12/19 12:34:35;;;;;;;2.33;1.55;;;9.90;39.80;;;;;;5008143;28;20499;-73
2022/12/19 12:37:26;;;;;;;2.00;1.27;;;10.10;37.60;;;;;;5009993;28;20184;-72
2022/12/19 12:40:20;;;;;;;2.22;1.50;;;10.10;38.10;;;;;;5011793;28;20251;-74
2022/12/19 12:43:12;;;;;;;1.90;1.20;;;10.50;37.50;;;;;;5011142;28;20172;-74
2022/12/19 12:45:40;;;;;;;2.10;1.48;;;11.10;36.50;;;;;;4996666;28;20256;-73
2022/12/19 12:48:26;;;;;;;2.00;1.30;;;11.40;35.00;;;;;;5008396;28;20181;-73
2022/12/19 12:50:54;;;;;;;3.03;1.65;;;11.70;34.50;;;;;;5011436;28;20161;-72
2022/12/19 12:53:30;;;;;;;2.70;1.80;;;11.90;34.10;;;;;;5011626;28;20228;-73
2022/12/19 12:55:59;;;;;;;3.73;2.40;;;12.30;33.00;;;;;;5010639;28;20434;-73
2022/12/19 12:58:54;;;;;;;1.80;1.10;;;12.00;33.90;;;;;;5011367;28;20416;-72
2022/12/19 13:01:28;;;;;;;3.05;2.33;;;11.20;34.40;;;;;;5010606;28;20416;-74
2022/12/19 13:04:10;;;;;;;2.40;1.23;;;10.50;37.00;;;;;;5011248;28;20204;-73
2022/12/19 13:07:21;;;;;;;2.72;1.70;;;10.60;37.20;;;;;;5009899;28;20192;-73
2022/12/19 13:09:53;;;;;;;3.30;2.03;;;10.70;37.30;;;;;;5003595;28;20189;-71
2022/12/19 13:15:27;;;;;;;1.90;1.13;;;9.20;44.10;;;;;;4999300;28;20262;-72
2022/12/19 13:17:53;;;;;;;2.63;1.40;;;9.30;43.70;;;;;;5011002;28;20181;-73
2022/12/19 13:20:27;;;;;;;2.00;1.20;;;10.00;40.50;;;;;;5008340;28;20213;-73
2022/12/19 13:22:56;;;;;;;2.50;1.70;;;10.50;39.20;;;;;;5006023;28;20180;-73
2022/12/19 13:25:36;;;;;;;2.00;1.27;;;10.30;39.20;;;;;;5008346;28;20291;-72